Time;durP1;ratioP1;P1;durP2;ratioP2;P2;SDS_P1;SDS_P2;PMS_P1;PMS_P2;Temp;Humidity;BMP_temperature;BMP_pressure;BME280_temperature;BME280_humidity;BME280_pressure;Samples;Min_cycle;Max_cycle;Signal;HPM_P1;HPM_P2
2023/11/02 00:02:21;;;;;;;4.40;1.40;;;11.10;99.90;;;;;;4976116;28;20030;-82
2023/11/02 00:04:49;;;;;;;4.32;1.50;;;11.10;99.90;;;;;;4975523;28;20022;-82
2023/11/02 00:07:14;;;;;;;5.05;1.85;;;11.10;99.90;;;;;;4976071;28;20027;-82
2023/11/02 00:09:40;;;;;;;3.67;1.50;;;11.30;99.90;;;;;;4975447;28;20526;-82
2023/11/02 00:12:15;;;;;;;5.40;1.52;;;11.10;99.90;;;;;;4975073;28;20019;-83
2023/11/02 00:14:46;;;;;;;3.55;1.15;;;11.10;99.90;;;;;;4975505;28;20039;-83
2023/11/02 00:17:35;;;;;;;3.65;1.45;;;11.20;99.90;;;;;;4975134;28;20055;-82
2023/11/02 00:20:03;;;;;;;7.03;1.48;;;11.40;99.90;;;;;;4975571;28;20077;-82
2023/11/02 00:22:29;;;;;;;3.15;1.17;;;11.10;99.90;;;;;;4975729;28;20031;-82
2023/11/02 00:25:04;;;;;;;4.85;1.35;;;11.20;99.90;;;;;;4974938;28;20103;-83
2023/11/02 00:27:32;;;;;;;6.35;1.35;;;11.20;99.90;;;;;;4975609;28;20030;-82
2023/11/02 00:29:58;;;;;;;4.07;1.48;;;11.20;99.90;;;;;;4975100;28;20039;-83
2023/11/02 00:32:24;;;;;;;7.40;1.60;;;11.20;99.90;;;;;;4974386;28;20046;-82
2023/11/02 00:34:50;;;;;;;3.95;1.38;;;11.20;99.90;;;;;;4975207;28;20015;-82
2023/11/02 00:37:16;;;;;;;7.30;1.98;;;11.20;99.90;;;;;;4975391;28;20537;-83
2023/11/02 00:39:41;;;;;;;5.30;1.42;;;11.20;99.90;;;;;;4974385;28;20391;-82
2023/11/02 00:42:07;;;;;;;6.50;1.42;;;11.30;99.90;;;;;;4975162;28;20054;-82
2023/11/02 00:44:33;;;;;;;4.90;1.17;;;11.30;99.90;;;;;;4974704;28;20027;-83
2023/11/02 00:46:59;;;;;;;6.40;1.48;;;11.20;99.90;;;;;;4974456;28;20031;-82
2023/11/02 00:49:31;;;;;;;5.80;1.23;;;11.30;99.90;;;;;;4974681;28;20023;-83
2023/11/02 00:52:00;;;;;;;4.55;1.10;;;11.20;99.90;;;;;;4975142;28;20434;-82
2023/11/02 00:54:44;;;;;;;2.47;1.00;;;11.30;99.90;;;;;;4974252;28;20035;-82
2023/11/02 00:57:15;;;;;;;4.43;1.33;;;11.20;99.90;;;;;;4974918;28;20058;-81
2023/11/02 00:59:41;;;;;;;6.25;1.40;;;11.30;99.90;;;;;;4973275;28;20120;-82
2023/11/02 01:02:07;;;;;;;4.78;1.40;;;11.30;99.90;;;;;;4975033;28;20073;-82
2023/11/02 01:04:41;;;;;;;8.02;1.27;;;11.30;99.90;;;;;;4974649;28;20030;-82
2023/11/02 01:07:07;;;;;;;3.78;1.45;;;11.30;99.90;;;;;;4974090;28;20026;-82
2023/11/02 01:09:51;;;;;;;4.95;1.85;;;11.30;99.90;;;;;;4974576;28;20106;-82
2023/11/02 01:12:32;;;;;;;2.92;1.10;;;11.30;99.90;;;;;;4974762;28;20023;-83
2023/11/02 01:14:59;;;;;;;7.35;1.48;;;11.30;99.90;;;;;;4974051;28;20027;-83
2023/11/02 01:17:31;;;;;;;5.82;1.20;;;12.30;99.90;;;;;;4974219;28;20034;-82
2023/11/02 01:20:09;;;;;;;5.20;1.23;;;11.30;99.90;;;;;;4974611;28;20023;-82
2023/11/02 01:22:48;;;;;;;4.35;1.48;;;11.30;99.90;;;;;;4973498;28;20355;-81
2023/11/02 01:25:14;;;;;;;5.40;1.83;;;11.30;99.90;;;;;;4974762;28;20019;-82
2023/11/02 01:27:40;;;;;;;6.10;1.27;;;11.30;99.90;;;;;;4973547;28;20541;-82
2023/11/02 01:30:29;;;;;;;7.10;1.65;;;11.50;99.90;;;;;;4974237;28;20066;-83
2023/11/02 01:32:55;;;;;;;3.95;1.52;;;11.30;99.90;;;;;;4972996;28;20041;-82
2023/11/02 01:35:43;;;;;;;4.45;1.38;;;11.30;99.90;;;;;;4973224;28;20027;-82
2023/11/02 01:38:13;;;;;;;5.13;1.60;;;11.20;99.90;;;;;;4974328;28;20042;-82
2023/11/02 01:40:53;;;;;;;7.50;1.83;;;11.30;99.90;;;;;;4974195;28;20023;-82
2023/11/02 01:43:30;;;;;;;5.18;1.27;;;11.20;99.90;;;;;;4973806;28;20270;-82
2023/11/02 01:46:00;;;;;;;4.60;1.30;;;11.30;99.90;;;;;;4974344;28;20034;-82
2023/11/02 01:48:37;;;;;;;5.82;1.38;;;11.30;99.90;;;;;;4973100;28;20462;-82
2023/11/02 01:51:13;;;;;;;10.60;1.98;;;11.30;99.90;;;;;;4974354;28;20031;-81
2023/11/02 01:53:49;;;;;;;7.13;1.60;;;11.20;99.90;;;;;;4973773;28;20419;-82
2023/11/02 01:56:32;;;;;;;12.73;1.58;;;11.30;99.90;;;;;;4973571;28;20023;-82
2023/11/02 01:59:41;;;;;;;6.22;1.13;;;11.30;99.90;;;;;;4974095;28;20043;-82
2023/11/02 02:02:25;;;;;;;4.97;1.27;;;11.20;99.90;;;;;;4974073;28;20106;-83
2023/11/02 02:05:03;;;;;;;7.40;2.30;;;11.30;99.90;;;;;;4964250;28;20483;-82
2023/11/02 02:07:40;;;;;;;4.97;1.65;;;11.50;99.90;;;;;;4973389;28;20042;-83
2023/11/02 02:10:15;;;;;;;4.93;1.15;;;11.30;99.90;;;;;;4974864;28;20514;-83
2023/11/02 02:13:02;;;;;;;6.43;1.30;;;11.30;99.90;;;;;;4977588;28;20047;-82
2023/11/02 02:16:08;;;;;;;5.45;1.35;;;11.30;99.90;;;;;;4977712;28;20031;-82
2023/11/02 02:18:39;;;;;;;5.22;1.35;;;11.30;99.90;;;;;;4976585;28;20042;-82
2023/11/02 02:21:16;;;;;;;3.40;1.20;;;11.30;99.90;;;;;;4977566;28;20035;-82
2023/11/02 02:23:51;;;;;;;2.38;1.23;;;11.30;99.90;;;;;;4974361;28;20042;-82
2023/11/02 02:26:31;;;;;;;4.93;1.60;;;11.30;99.90;;;;;;4977436;28;20023;-83
2023/11/02 02:29:15;;;;;;;7.15;1.40;;;11.30;99.90;;;;;;4969028;28;20028;-82
2023/11/02 02:31:57;;;;;;;2.75;1.38;;;11.30;99.90;;;;;;4961990;28;20134;-82
2023/11/02 02:34:41;;;;;;;6.28;1.42;;;11.40;99.90;;;;;;4964013;28;20090;-82
2023/11/02 02:37:14;;;;;;;4.15;1.20;;;11.30;99.90;;;;;;4968827;28;20035;-83
2023/11/02 02:39:43;;;;;;;5.63;1.20;;;11.30;99.90;;;;;;4969096;28;20242;-82
2023/11/02 02:42:13;;;;;;;7.85;1.85;;;11.30;99.90;;;;;;4958038;28;20030;-82
2023/11/02 02:44:41;;;;;;;4.57;1.57;;;11.30;99.90;;;;;;4967932;28;20439;-82
2023/11/02 02:47:09;;;;;;;13.55;1.92;;;12.10;99.90;;;;;;4967410;28;20751;-83
2023/11/02 02:49:49;;;;;;;5.95;2.03;;;11.30;99.90;;;;;;4959456;28;20535;-83
2023/11/02 02:52:17;;;;;;;7.83;1.83;;;12.20;99.90;;;;;;4957123;28;20041;-83
2023/11/02 02:54:46;;;;;;;9.57;1.65;;;11.40;99.90;;;;;;4969708;28;20082;-82
2023/11/02 02:57:12;;;;;;;6.32;1.45;;;11.40;99.90;;;;;;4976671;28;20045;-82
2023/11/02 02:59:42;;;;;;;4.38;1.10;;;11.40;99.90;;;;;;4974084;28;20035;-82
2023/11/02 03:02:11;;;;;;;4.57;1.35;;;11.40;99.90;;;;;;4977150;28;20082;-85
2023/11/02 03:04:36;;;;;;;3.50;1.10;;;11.40;99.90;;;;;;4965674;28;20486;-83
2023/11/02 03:07:03;;;;;;;2.80;1.27;;;11.40;99.90;;;;;;4973681;28;20059;-81
2023/11/02 03:09:35;;;;;;;4.95;1.33;;;11.50;99.90;;;;;;4967170;28;20039;-82
2023/11/02 03:12:03;;;;;;;7.55;1.20;;;11.40;99.90;;;;;;4967783;28;20031;-81
2023/11/02 03:14:30;;;;;;;6.28;1.88;;;11.40;99.90;;;;;;4967437;28;20039;-82
2023/11/02 03:17:06;;;;;;;4.90;1.55;;;11.50;99.90;;;;;;4976631;28;20023;-81
2023/11/02 03:19:45;;;;;;;5.13;1.45;;;11.40;99.90;;;;;;4974281;28;20038;-82
2023/11/02 03:22:14;;;;;;;11.85;2.47;;;11.50;99.90;;;;;;4974939;28;20344;-82
2023/11/02 03:25:12;;;;;;;4.70;1.10;;;12.20;99.90;;;;;;4972958;28;20113;-82
2023/11/02 03:28:00;;;;;;;3.42;1.13;;;11.50;99.90;;;;;;4969794;28;20114;-82
2023/11/02 03:30:37;;;;;;;5.88;1.35;;;11.50;99.90;;;;;;4973552;28;20043;-82
2023/11/02 03:33:40;;;;;;;5.15;1.70;;;11.50;99.90;;;;;;4976616;28;20035;-82
2023/11/02 03:36:15;;;;;;;7.50;1.17;;;11.50;99.90;;;;;;4922971;28;20563;-82
2023/11/02 03:38:59;;;;;;;8.05;1.95;;;11.50;99.90;;;;;;4958135;28;20499;-82
2023/11/02 03:41:48;;;;;;;7.25;1.70;;;11.50;99.90;;;;;;4956269;29;20035;-81
2023/11/02 03:44:38;;;;;;;5.95;1.33;;;11.50;99.90;;;;;;4967467;28;20129;-82
2023/11/02 03:47:04;;;;;;;4.33;1.10;;;11.50;99.90;;;;;;4956760;29;20031;-82
2023/11/02 03:49:37;;;;;;;3.25;1.00;;;11.50;99.90;;;;;;4962186;28;20023;-82
2023/11/02 03:52:30;;;;;;;16.50;2.40;;;11.50;99.90;;;;;;4969462;28;20026;-82
2023/11/02 03:55:16;;;;;;;6.00;1.40;;;11.50;99.90;;;;;;4968424;28;20039;-82
2023/11/02 03:58:11;;;;;;;5.80;1.38;;;11.60;99.90;;;;;;4956910;28;20038;-82
2023/11/02 04:00:47;;;;;;;4.15;1.02;;;11.50;99.90;;;;;;4934653;28;20566;-82
2023/11/02 04:03:16;;;;;;;6.68;1.00;;;11.50;99.90;;;;;;4975496;28;20046;-82
2023/11/02 04:05:47;;;;;;;5.20;2.05;;;11.50;99.90;;;;;;4965817;28;20035;-82
2023/11/02 04:08:17;;;;;;;;;;;11.60;99.90;;;;;;4967802;28;20031;-83
2023/11/02 04:10:56;;;;;;;3.93;1.10;;;11.50;99.90;;;;;;4961914;28;19918;-83
2023/11/02 04:13:28;;;;;;;6.20;1.40;;;11.50;99.90;;;;;;4974523;28;20019;-83
2023/11/02 04:15:53;;;;;;;4.78;1.20;;;11.50;99.90;;;;;;4959692;28;20050;-83
2023/11/02 04:18:20;;;;;;;5.72;1.30;;;11.60;99.90;;;;;;4955690;28;20052;-82
2023/11/02 04:20:51;;;;;;;7.90;1.40;;;11.50;99.90;;;;;;4971872;28;20081;-82
2023/11/02 04:23:18;;;;;;;7.97;1.27;;;11.50;99.90;;;;;;4974386;28;20109;-83
2023/11/02 04:25:44;;;;;;;4.60;1.00;;;11.60;99.90;;;;;;4973017;28;20035;-82
2023/11/02 04:28:10;;;;;;;13.05;1.85;;;11.50;99.90;;;;;;4969484;28;20037;-82
2023/11/02 04:30:35;;;;;;;8.85;1.10;;;11.50;99.90;;;;;;4967715;28;20426;-81
2023/11/02 04:33:01;;;;;;;4.85;0.88;;;11.60;99.90;;;;;;4974099;28;20081;-82
2023/11/02 04:35:26;;;;;;;3.20;0.90;;;12.80;99.90;;;;;;4969603;28;20027;-81
2023/11/02 04:38:03;;;;;;;7.18;1.10;;;11.60;99.90;;;;;;4974281;28;20031;-81
2023/11/02 04:40:29;;;;;;;2.25;0.80;;;11.60;99.90;;;;;;4972519;28;20325;-81
2023/11/02 04:42:54;;;;;;;4.20;0.90;;;11.60;99.90;;;;;;4974599;28;20114;-81
2023/11/02 04:45:20;;;;;;;4.75;1.30;;;11.60;99.90;;;;;;4971575;28;20442;-81
2023/11/02 04:47:46;;;;;;;3.88;1.00;;;11.70;99.90;;;;;;4967130;28;20036;-81
2023/11/02 04:50:12;;;;;;;6.32;1.20;;;11.70;99.90;;;;;;4955795;28;20028;-81
2023/11/02 04:52:37;;;;;;;3.22;0.80;;;11.70;99.90;;;;;;4956046;28;20050;-81
2023/11/02 04:55:04;;;;;;;7.63;0.88;;;11.70;99.90;;;;;;4969558;28;20482;-80
2023/11/02 04:57:29;;;;;;;2.13;0.77;;;11.70;99.90;;;;;;4957686;28;20039;-81
2023/11/02 04:59:55;;;;;;;2.47;0.73;;;12.10;99.90;;;;;;4972465;28;20035;-82
2023/11/02 05:02:22;;;;;;;4.10;0.98;;;11.70;99.90;;;;;;4974669;28;20058;-80
2023/11/02 05:04:47;;;;;;;2.63;0.80;;;11.80;99.90;;;;;;4972413;28;20026;-82
2023/11/02 05:07:13;;;;;;;2.45;0.77;;;12.00;99.90;;;;;;4973999;28;20077;-82
2023/11/02 05:09:38;;;;;;;4.72;0.95;;;11.70;99.90;;;;;;4971792;28;20101;-82
2023/11/02 05:12:04;;;;;;;3.42;0.98;;;11.90;99.90;;;;;;4974544;28;20107;-82
2023/11/02 05:14:30;;;;;;;1.90;0.80;;;11.80;99.90;;;;;;4969185;28;20106;-82
2023/11/02 05:16:55;;;;;;;3.50;0.75;;;11.80;99.90;;;;;;4973250;28;20027;-82
2023/11/02 05:19:21;;;;;;;3.63;0.85;;;11.80;99.90;;;;;;4974255;28;20038;-82
2023/11/02 05:21:46;;;;;;;3.35;0.98;;;11.80;99.90;;;;;;4974085;28;20030;-83
2023/11/02 05:24:14;;;;;;;2.40;0.63;;;11.70;99.90;;;;;;4971909;28;20027;-82
2023/11/02 05:26:39;;;;;;;3.78;1.10;;;11.70;99.90;;;;;;4971868;28;20050;-83
2023/11/02 05:29:05;;;;;;;3.88;0.95;;;11.60;99.90;;;;;;4961235;28;20027;-85
2023/11/02 05:31:30;;;;;;;5.53;0.93;;;12.30;99.90;;;;;;4954408;28;20059;-83
2023/11/02 05:33:56;;;;;;;3.60;1.08;;;11.60;99.90;;;;;;4966303;28;20150;-83
2023/11/02 05:36:25;;;;;;;5.05;0.80;;;11.50;99.90;;;;;;4973764;28;20065;-82
2023/11/02 05:38:51;;;;;;;5.25;1.13;;;12.10;99.90;;;;;;4971113;28;20118;-82
2023/11/02 05:41:17;;;;;;;2.17;0.73;;;11.40;99.90;;;;;;4954034;28;20452;-82
2023/11/02 05:43:42;;;;;;;5.60;1.30;;;11.40;99.90;;;;;;4963474;28;20037;-82
2023/11/02 05:46:08;;;;;;;10.05;0.77;;;11.30;99.90;;;;;;4973519;28;20023;-82
2023/11/02 05:48:33;;;;;;;7.45;1.38;;;11.30;99.90;;;;;;4954598;28;20047;-82
2023/11/02 05:50:59;;;;;;;3.00;0.70;;;11.30;99.90;;;;;;4954692;28;20464;-82
2023/11/02 05:53:25;;;;;;;3.85;0.70;;;11.30;99.90;;;;;;4961432;28;20027;-82
2023/11/02 05:55:50;;;;;;;5.55;0.73;;;11.30;99.90;;;;;;4973482;28;20903;-82
2023/11/02 05:58:16;;;;;;;3.88;1.15;;;11.30;99.90;;;;;;4970272;28;20038;-83
2023/11/02 06:00:41;;;;;;;5.38;1.05;;;12.50;99.90;;;;;;4967948;28;20114;-81
2023/11/02 06:03:07;;;;;;;2.70;0.60;;;11.30;99.90;;;;;;4954300;28;20504;-82
2023/11/02 06:05:33;;;;;;;2.88;0.70;;;11.30;99.90;;;;;;4958421;28;20027;-81
2023/11/02 06:07:59;;;;;;;5.45;1.52;;;11.40;99.90;;;;;;4957886;28;20038;-82
2023/11/02 06:10:24;;;;;;;6.45;1.10;;;11.30;99.90;;;;;;4972585;28;20027;-82
2023/11/02 06:12:50;;;;;;;2.08;0.90;;;11.30;99.90;;;;;;4971801;28;20157;-84
2023/11/02 06:15:15;;;;;;;2.25;0.90;;;11.30;99.90;;;;;;4966748;28;20027;-81
2023/11/02 06:17:41;;;;;;;3.75;1.10;;;11.30;99.90;;;;;;4958781;28;20093;-81
2023/11/02 06:20:07;;;;;;;3.22;0.88;;;11.30;99.90;;;;;;4955017;29;20024;-81
2023/11/02 06:22:33;;;;;;;3.40;1.15;;;11.30;99.90;;;;;;4958484;28;20577;-82
2023/11/02 06:24:59;;;;;;;1.85;0.80;;;11.20;99.90;;;;;;4952194;28;20035;-83
2023/11/02 06:27:25;;;;;;;3.05;1.10;;;11.10;99.90;;;;;;4965291;28;20387;-82
2023/11/02 06:29:51;;;;;;;4.50;1.55;;;11.20;99.90;;;;;;4971008;28;20035;-83
2023/11/02 06:32:16;;;;;;;2.55;0.85;;;11.20;99.90;;;;;;4970421;28;20031;-82
2023/11/02 06:34:42;;;;;;;2.03;0.60;;;11.10;99.90;;;;;;4971514;28;20041;-83
2023/11/02 06:37:11;;;;;;;2.20;0.88;;;11.50;99.90;;;;;;4969360;28;20103;-83
2023/11/02 06:39:37;;;;;;;3.30;0.88;;;11.10;99.90;;;;;;4971283;28;20073;-83
2023/11/02 06:42:04;;;;;;;5.53;0.75;;;11.10;99.90;;;;;;4970349;28;20437;-83
2023/11/02 06:44:30;;;;;;;2.05;0.95;;;11.20;99.90;;;;;;4970604;28;20039;-83
2023/11/02 06:46:56;;;;;;;2.88;1.15;;;11.20;99.90;;;;;;4968433;28;20037;-83
2023/11/02 06:49:22;;;;;;;4.05;0.82;;;11.10;99.90;;;;;;4971024;28;20126;-83
2023/11/02 06:51:47;;;;;;;3.13;0.82;;;11.10;99.90;;;;;;4970004;28;20051;-83
2023/11/02 06:54:13;;;;;;;2.67;0.65;;;11.10;99.90;;;;;;4972142;28;20058;-82
2023/11/02 06:56:39;;;;;;;4.85;0.82;;;11.50;99.90;;;;;;4970623;28;20364;-83
2023/11/02 06:59:05;;;;;;;4.00;0.73;;;11.10;99.90;;;;;;4974825;28;20046;-82
2023/11/02 07:01:31;;;;;;;9.15;1.20;;;11.10;99.90;;;;;;4973803;28;20053;-83
2023/11/02 07:03:58;;;;;;;4.15;0.77;;;11.10;99.90;;;;;;4975395;28;20050;-83
2023/11/02 07:06:23;;;;;;;2.15;0.82;;;11.20;99.90;;;;;;4972194;28;20510;-83
2023/11/02 07:08:50;;;;;;;2.00;0.82;;;11.20;99.90;;;;;;4973687;28;20065;-83
2023/11/02 07:11:15;;;;;;;5.38;1.25;;;11.30;99.90;;;;;;4973597;28;20023;-82
2023/11/02 07:13:41;;;;;;;1.08;0.80;;;11.30;99.90;;;;;;4976737;28;20031;-83
2023/11/02 07:16:07;;;;;;;1.33;0.63;;;11.30;99.90;;;;;;4975276;28;20027;-83
2023/11/02 07:18:32;;;;;;;5.40;0.80;;;11.30;99.90;;;;;;4975132;28;20051;-83
2023/11/02 07:20:58;;;;;;;7.00;0.98;;;11.40;99.90;;;;;;4973382;28;20113;-83
2023/11/02 07:23:24;;;;;;;3.88;0.77;;;11.40;99.90;;;;;;4974597;28;20058;-83
2023/11/02 07:25:49;;;;;;;2.08;1.20;;;11.50;99.90;;;;;;4965367;28;20101;-85
2023/11/02 07:28:15;;;;;;;2.55;1.10;;;11.50;99.90;;;;;;4964581;28;20031;-82
2023/11/02 07:30:40;;;;;;;2.17;0.82;;;11.50;99.90;;;;;;4968032;28;20059;-82
2023/11/02 07:33:07;;;;;;;3.10;0.68;;;11.50;99.90;;;;;;4963165;28;20019;-82
2023/11/02 07:35:33;;;;;;;2.35;1.00;;;11.60;99.90;;;;;;4958024;28;20046;-82
2023/11/02 07:37:59;;;;;;;2.67;0.90;;;11.60;99.90;;;;;;4968692;28;20565;-83
2023/11/02 07:40:24;;;;;;;2.35;1.40;;;11.60;99.90;;;;;;4987735;28;20027;-83
2023/11/02 07:42:50;;;;;;;3.13;0.85;;;12.20;99.90;;;;;;4977713;28;20030;-83
2023/11/02 07:45:16;;;;;;;11.13;1.33;;;11.70;99.90;;;;;;4984691;28;20463;-82
2023/11/02 07:47:41;;;;;;;2.65;1.45;;;11.70;99.90;;;;;;4978730;28;20049;-81
2023/11/02 07:50:07;;;;;;;1.83;0.85;;;12.10;99.90;;;;;;4981063;28;20101;-82
2023/11/02 07:52:33;;;;;;;3.30;1.13;;;11.80;99.90;;;;;;4980648;28;20104;-83
2023/11/02 07:54:58;;;;;;;16.98;1.98;;;11.80;99.90;;;;;;4980693;28;20431;-81
2023/11/02 07:57:26;;;;;;;3.42;1.17;;;11.80;99.90;;;;;;4982667;28;20015;-83
2023/11/02 07:59:52;;;;;;;5.22;1.20;;;11.80;99.90;;;;;;4982340;28;20090;-82
2023/11/02 08:02:18;;;;;;;3.83;0.93;;;11.80;99.90;;;;;;4973250;28;20031;-83
2023/11/02 08:04:44;;;;;;;2.88;1.38;;;11.80;99.90;;;;;;4959980;28;20054;-82
2023/11/02 08:07:09;;;;;;;4.25;1.02;;;11.80;99.90;;;;;;4963759;28;20065;-83
2023/11/02 08:09:37;;;;;;;3.95;1.00;;;11.90;99.90;;;;;;4966571;28;20148;-81
2023/11/02 08:12:08;;;;;;;3.55;0.90;;;11.90;99.90;;;;;;4981966;28;20030;-82
2023/11/02 08:14:36;;;;;;;3.88;0.80;;;11.90;99.90;;;;;;4962334;28;20469;-82
2023/11/02 08:17:03;;;;;;;9.55;1.85;;;11.90;99.90;;;;;;4959665;28;20133;-85
2023/11/02 08:19:29;;;;;;;3.28;0.82;;;12.00;99.90;;;;;;4975608;28;20085;-87
2023/11/02 08:21:55;;;;;;;4.13;0.90;;;12.00;99.90;;;;;;4974230;28;20027;-91
2023/11/02 08:24:21;;;;;;;10.68;1.63;;;12.00;99.90;;;;;;4977556;28;20073;-86
2023/11/02 08:26:47;;;;;;;6.05;1.25;;;12.10;99.90;;;;;;4976356;28;20015;-93
2023/11/02 08:29:12;;;;;;;5.30;1.23;;;12.00;99.90;;;;;;4961985;28;20534;-91
2023/11/02 08:31:39;;;;;;;5.88;1.33;;;12.20;99.90;;;;;;4964694;28;20137;-85
2023/11/02 08:34:05;;;;;;;5.80;1.15;;;12.50;99.90;;;;;;4967852;28;20106;-89
2023/11/02 08:36:31;;;;;;;9.25;1.25;;;12.60;99.90;;;;;;4973981;28;20026;-84
2023/11/02 08:38:57;;;;;;;6.45;1.08;;;12.60;99.90;;;;;;4985466;28;20043;-85
2023/11/02 08:41:24;;;;;;;4.70;1.73;;;12.50;99.90;;;;;;4959746;28;20126;-86
2023/11/02 08:43:50;;;;;;;7.57;1.27;;;12.60;99.90;;;;;;4967004;28;20034;-87
2023/11/02 08:46:20;;;;;;;4.40;1.10;;;12.70;99.90;;;;;;4964858;28;20412;-82
2023/11/02 08:48:47;;;;;;;7.43;1.92;;;12.70;99.90;;;;;;4973344;28;20049;-82
2023/11/02 08:51:18;;;;;;;4.03;1.25;;;12.80;99.90;;;;;;4964773;28;20049;-81
2023/11/02 08:53:44;;;;;;;8.30;1.75;;;12.80;99.90;;;;;;4964013;28;20031;-81
2023/11/02 08:56:11;;;;;;;3.30;1.73;;;12.90;99.90;;;;;;4973614;28;20037;-81
2023/11/02 08:58:44;;;;;;;8.13;1.60;;;12.90;99.90;;;;;;4972404;28;20042;-82
2023/11/02 09:01:11;;;;;;;8.38;1.42;;;13.00;99.90;;;;;;4972824;28;20077;-83
2023/11/02 09:03:38;;;;;;;10.50;2.05;;;13.00;99.90;;;;;;4956829;28;20020;-85
2023/11/02 09:06:07;;;;;;;5.40;1.15;;;13.10;99.90;;;;;;4979355;28;20034;-83
2023/11/02 09:08:34;;;;;;;9.13;2.15;;;13.10;99.90;;;;;;4979295;28;20031;-84
2023/11/02 09:11:00;;;;;;;8.27;1.45;;;13.20;99.90;;;;;;4971637;28;20027;-83
2023/11/02 09:13:26;;;;;;;7.10;1.65;;;13.20;99.90;;;;;;4981769;28;20491;-81
2023/11/02 09:15:52;;;;;;;7.25;2.47;;;13.20;99.90;;;;;;4973724;28;20072;-82
2023/11/02 09:18:17;;;;;;;6.25;1.80;;;13.20;99.90;;;;;;4976629;28;20166;-82
2023/11/02 09:20:43;;;;;;;5.78;1.65;;;13.20;99.90;;;;;;4973036;28;20019;-83
2023/11/02 09:23:09;;;;;;;10.05;1.95;;;13.10;99.90;;;;;;4972778;28;20170;-83
2023/11/02 09:25:34;;;;;;;5.80;1.65;;;13.10;99.90;;;;;;4968523;28;20104;-82
2023/11/02 09:28:00;;;;;;;10.45;1.70;;;13.10;99.90;;;;;;4965539;28;20029;-83
2023/11/02 09:30:26;;;;;;;10.25;2.00;;;13.00;99.90;;;;;;4978716;28;20054;-82
2023/11/02 09:32:52;;;;;;;9.90;1.80;;;13.70;99.90;;;;;;4970066;28;20042;-83
2023/11/02 09:35:18;;;;;;;9.52;1.63;;;12.90;99.90;;;;;;4973747;28;20375;-85
2023/11/02 09:37:43;;;;;;;6.80;2.00;;;12.90;99.90;;;;;;4983726;28;20124;-84
2023/11/02 09:40:10;;;;;;;11.60;2.45;;;13.80;99.90;;;;;;4969364;28;20082;-88
2023/11/02 09:42:36;;;;;;;5.00;1.52;;;12.90;99.90;;;;;;4968697;28;20027;-88
2023/11/02 09:45:03;;;;;;;9.88;2.28;;;13.00;99.90;;;;;;4970474;28;20110;-87
2023/11/02 09:47:29;;;;;;;6.78;1.45;;;12.90;99.90;;;;;;4957285;28;20491;-85
2023/11/02 09:49:55;;;;;;;5.53;1.10;;;13.20;99.90;;;;;;4974331;28;20378;-84
2023/11/02 09:52:21;;;;;;;8.63;1.80;;;13.20;99.90;;;;;;4963536;28;20026;-84
2023/11/02 09:54:48;;;;;;;9.68;1.65;;;14.10;99.90;;;;;;4982323;28;20038;-83
2023/11/02 09:57:14;;;;;;;3.47;1.23;;;13.40;99.90;;;;;;4981890;28;20031;-83
2023/11/02 09:59:44;;;;;;;11.05;2.58;;;13.30;99.90;;;;;;4978874;28;20034;-83
2023/11/02 10:02:11;;;;;;;13.32;1.48;;;13.40;99.90;;;;;;4972228;28;20037;-83
2023/11/02 10:04:37;;;;;;;5.57;1.55;;;13.40;99.90;;;;;;4982137;28;20114;-83
2023/11/02 10:07:05;;;;;;;4.60;1.33;;;13.80;99.90;;;;;;4980111;28;20034;-84
2023/11/02 10:09:34;;;;;;;19.63;1.67;;;13.70;99.90;;;;;;4974632;28;20061;-83
2023/11/02 10:12:00;;;;;;;8.60;1.52;;;13.50;99.90;;;;;;4980101;28;20045;-82
2023/11/02 10:14:25;;;;;;;4.50;1.15;;;13.50;99.90;;;;;;4959214;28;20027;-83
2023/11/02 10:17:03;;;;;;;11.07;2.30;;;13.50;99.90;;;;;;4973669;28;20031;-83
2023/11/02 10:19:30;;;;;;;7.38;1.52;;;14.80;99.90;;;;;;4968609;28;20042;-81
2023/11/02 10:21:59;;;;;;;10.38;1.25;;;13.60;99.90;;;;;;4976523;28;20478;-85
2023/11/02 10:24:34;;;;;;;8.73;1.98;;;13.60;99.90;;;;;;4972092;28;20026;-83
2023/11/02 10:27:04;;;;;;;8.02;1.85;;;13.60;99.90;;;;;;4970780;28;20101;-84
2023/11/02 10:29:30;;;;;;;11.60;1.52;;;13.60;99.90;;;;;;4970525;28;20019;-82
2023/11/02 10:31:56;;;;;;;9.90;2.38;;;13.60;99.90;;;;;;4971839;28;20114;-82
2023/11/02 10:34:26;;;;;;;5.40;1.50;;;13.50;99.90;;;;;;4975278;28;20384;-82
2023/11/02 10:36:52;;;;;;;6.00;1.42;;;13.60;99.90;;;;;;4973572;28;20034;-82
2023/11/02 10:39:19;;;;;;;8.75;1.60;;;13.50;99.90;;;;;;4976157;28;20039;-82
2023/11/02 10:41:59;;;;;;;7.50;1.65;;;13.50;99.90;;;;;;4977434;28;20031;-82
2023/11/02 10:44:28;;;;;;;10.23;1.88;;;13.50;99.90;;;;;;4974583;28;20030;-81
2023/11/02 10:47:03;;;;;;;5.78;1.77;;;13.50;99.90;;;;;;4977534;28;20117;-84
2023/11/02 10:49:37;;;;;;;11.63;1.85;;;13.40;99.90;;;;;;4983477;28;20027;-84
2023/11/02 10:52:07;;;;;;;13.50;1.92;;;13.40;99.90;;;;;;4971380;28;20031;-84
2023/11/02 10:54:53;;;;;;;11.93;2.08;;;13.30;99.90;;;;;;4978471;28;20037;-84
2023/11/02 10:57:22;;;;;;;4.47;1.50;;;13.30;99.90;;;;;;4982937;28;20034;-84
2023/11/02 10:59:48;;;;;;;9.82;2.08;;;13.20;99.90;;;;;;4980480;28;20057;-83
2023/11/02 11:02:17;;;;;;;10.40;1.95;;;13.20;99.90;;;;;;4986325;28;20608;-84
2023/11/02 11:04:44;;;;;;;11.88;1.92;;;13.20;99.90;;;;;;4977730;28;20039;-84
2023/11/02 11:07:10;;;;;;;11.90;2.05;;;13.10;99.90;;;;;;4985814;28;20046;-83
2023/11/02 11:09:38;;;;;;;13.25;1.90;;;13.00;99.90;;;;;;4979741;28;20031;-84
2023/11/02 11:12:04;;;;;;;10.50;1.80;;;13.00;99.90;;;;;;4981812;28;20033;-83
2023/11/02 11:14:31;;;;;;;12.10;2.38;;;12.90;99.90;;;;;;4974713;28;20057;-83
2023/11/02 11:16:57;;;;;;;13.43;2.03;;;12.70;99.90;;;;;;4976469;28;20105;-84
2023/11/02 11:19:24;;;;;;;10.90;1.98;;;12.60;99.90;;;;;;4973393;28;20039;-84
2023/11/02 11:21:52;;;;;;;13.02;2.55;;;12.50;99.90;;;;;;4965904;28;20027;-83
2023/11/02 11:24:17;;;;;;;10.35;2.40;;;12.40;99.90;;;;;;4970849;28;20471;-83
2023/11/02 11:26:48;;;;;;;12.20;2.50;;;12.50;99.90;;;;;;4974581;28;20034;-84
2023/11/02 11:29:36;;;;;;;11.30;2.88;;;12.20;99.90;;;;;;4969899;28;20392;-83
2023/11/02 11:32:03;;;;;;;12.35;2.03;;;12.20;99.90;;;;;;4967844;28;20237;-83
2023/11/02 11:34:58;;;;;;;9.98;1.65;;;12.20;99.90;;;;;;4964366;28;20027;-88
2023/11/02 11:37:35;;;;;;;7.63;2.15;;;12.20;99.90;;;;;;4979087;28;20085;-90
2023/11/02 11:40:06;;;;;;;12.00;2.00;;;12.00;99.90;;;;;;4968280;28;20031;-89
2023/11/02 11:43:03;;;;;;;12.65;1.42;;;12.10;99.90;;;;;;4961315;28;20035;-85
2023/11/02 11:45:32;;;;;;;5.65;1.48;;;12.10;99.90;;;;;;4967856;28;20114;-88
2023/11/02 11:48:03;;;;;;;17.60;2.72;;;12.10;99.90;;;;;;4958959;28;20023;-87
2023/11/02 11:50:29;;;;;;;11.65;1.95;;;12.10;99.90;;;;;;4956764;28;20075;-87
2023/11/02 11:53:11;;;;;;;9.98;1.83;;;12.90;99.90;;;;;;4960548;28;20359;-88
2023/11/02 11:55:37;;;;;;;10.48;2.05;;;12.00;99.90;;;;;;4975279;28;20491;-86
2023/11/02 11:58:04;;;;;;;7.20;1.58;;;12.50;99.90;;;;;;4974526;28;20077;-89
2023/11/02 12:00:30;;;;;;;6.43;1.90;;;11.90;99.90;;;;;;4972079;28;20035;-88
2023/11/02 12:02:57;;;;;;;16.52;2.03;;;12.30;99.90;;;;;;4963349;28;20039;-88
2023/11/02 12:05:44;;;;;;;12.60;2.33;;;11.90;99.90;;;;;;4975139;28;20118;-87
2023/11/02 12:08:10;;;;;;;13.70;1.88;;;11.80;99.90;;;;;;4956667;28;20024;-87
2023/11/02 12:10:53;;;;;;;8.43;1.65;;;11.80;99.90;;;;;;4962447;28;20057;-88
2023/11/02 12:13:19;;;;;;;6.15;1.92;;;11.80;99.90;;;;;;4956560;28;20090;-87
2023/11/02 12:15:59;;;;;;;6.43;1.55;;;11.80;99.90;;;;;;4963093;28;20115;-87
2023/11/02 12:18:29;;;;;;;9.20;1.88;;;11.80;99.90;;;;;;4975954;28;20125;-86
2023/11/02 12:20:56;;;;;;;;;;;12.10;99.90;;;;;;4963468;28;20058;-87
2023/11/02 12:23:35;;;;;;;9.55;1.40;;;11.80;99.90;;;;;;4974103;28;20322;-87
2023/11/02 12:26:05;;;;;;;4.25;1.38;;;11.90;99.90;;;;;;4974331;28;20030;-87
2023/11/02 12:28:58;;;;;;;3.67;1.15;;;11.90;99.90;;;;;;4976585;28;20035;-88
2023/11/02 12:31:32;;;;;;;7.68;1.52;;;11.90;99.90;;;;;;4957733;28;20055;-87
2023/11/02 12:34:02;;;;;;;11.57;2.10;;;11.90;99.90;;;;;;4956771;28;20484;-87
2023/11/02 12:36:28;;;;;;;5.45;1.23;;;11.90;99.90;;;;;;4965708;28;20039;-86
2023/11/02 12:38:56;;;;;;;10.75;1.60;;;12.00;99.90;;;;;;4972599;28;20039;-87
2023/11/02 12:41:27;;;;;;;10.23;1.55;;;12.00;99.90;;;;;;4973393;28;20078;-88
2023/11/02 12:44:08;;;;;;;7.90;1.65;;;12.00;99.90;;;;;;4958813;28;20143;-86
2023/11/02 12:46:42;;;;;;;12.35;2.15;;;12.10;99.90;;;;;;4966719;28;20479;-86
2023/11/02 12:49:18;;;;;;;8.55;2.47;;;12.10;99.90;;;;;;4975330;28;20023;-87
2023/11/02 12:51:49;;;;;;;13.50;2.28;;;12.10;99.90;;;;;;4958136;28;20032;-86
2023/11/02 12:54:16;;;;;;;3.85;1.20;;;12.10;99.90;;;;;;4965725;28;20506;-87
2023/11/02 12:56:44;;;;;;;13.15;1.42;;;12.10;99.90;;;;;;4972300;28;20034;-86
2023/11/02 12:59:10;;;;;;;9.10;1.73;;;12.10;99.90;;;;;;4972056;28;20039;-87
2023/11/02 13:01:45;;;;;;;7.03;1.35;;;12.10;99.90;;;;;;4975238;28;20038;-87